Time;durP1;ratioP1;P1;durP2;ratioP2;P2;SDS_P1;SDS_P2;PMS_P1;PMS_P2;Temp;Humidity;BMP_temperature;BMP_pressure;BME280_temperature;BME280_humidity;BME280_pressure;Samples;Min_cycle;Max_cycle;Signal;HPM_P1;HPM_P2
2021/09/17 00:01:10;;;;;;;11.10;7.20;;;19.60;99.90;;;;;;4141179;28;20558;-67
2021/09/17 00:03:11;;;;;;;9.80;7.47;;;19.50;99.90;;;;;;4142244;28;20046;-65
2021/09/17 00:05:12;;;;;;;11.25;7.20;;;19.50;99.90;;;;;;4139934;28;20948;-65
2021/09/17 00:07:13;;;;;;;9.50;6.82;;;19.50;99.90;;;;;;4142415;28;20103;-66
2021/09/17 00:09:15;;;;;;;9.77;6.18;;;19.50;99.90;;;;;;4141146;28;20494;-65
2021/09/17 00:11:16;;;;;;;12.13;6.80;;;19.50;99.90;;;;;;4142229;28;20080;-65
2021/09/17 00:13:18;;;;;;;10.50;6.35;;;19.50;99.90;;;;;;4140284;28;20112;-67
2021/09/17 00:15:19;;;;;;;11.43;7.45;;;19.50;99.90;;;;;;4139344;28;20058;-65
2021/09/17 00:17:20;;;;;;;9.88;7.57;;;19.50;99.90;;;;;;4140703;28;20072;-65
2021/09/17 00:19:21;;;;;;;9.02;7.13;;;19.50;99.90;;;;;;4141396;28;20042;-65
2021/09/17 00:21:22;;;;;;;12.02;7.63;;;19.50;99.90;;;;;;4141048;28;20091;-66
2021/09/17 00:23:23;;;;;;;8.57;6.57;;;19.40;99.90;;;;;;4141772;28;20041;-66
2021/09/17 00:25:25;;;;;;;11.52;7.03;;;19.40;99.90;;;;;;4140780;28;20486;-66
2021/09/17 00:27:26;;;;;;;12.07;7.32;;;19.40;99.90;;;;;;4141328;28;20042;-68
2021/09/17 00:29:27;;;;;;;11.40;6.85;;;19.40;99.90;;;;;;4141321;28;20885;-65
2021/09/17 00:31:28;;;;;;;10.00;5.55;;;19.30;99.90;;;;;;4140341;28;20100;-67
2021/09/17 00:33:30;;;;;;;13.80;6.35;;;19.40;99.90;;;;;;4141998;28;20034;-66
2021/09/17 00:35:31;;;;;;;11.00;6.45;;;19.40;99.90;;;;;;4140036;28;20100;-66
2021/09/17 00:37:32;;;;;;;10.45;6.75;;;19.40;99.90;;;;;;4141448;28;20030;-65
2021/09/17 00:39:33;;;;;;;10.20;6.72;;;19.40;99.90;;;;;;4139654;28;20049;-67
2021/09/17 00:41:34;;;;;;;9.63;6.32;;;19.40;99.90;;;;;;4141534;28;20076;-65
2021/09/17 00:43:36;;;;;;;11.20;6.40;;;19.40;99.90;;;;;;4140271;28;20473;-66
2021/09/17 00:45:37;;;;;;;8.30;5.45;;;19.40;99.90;;;;;;4141713;28;20038;-65
2021/09/17 00:47:39;;;;;;;12.45;6.68;;;19.40;99.90;;;;;;4122600;28;20391;-65
2021/09/17 00:49:41;;;;;;;8.48;5.82;;;19.40;99.90;;;;;;4125921;28;20046;-66
2021/09/17 00:51:42;;;;;;;10.93;7.70;;;19.40;99.90;;;;;;4123864;28;20034;-65
2021/09/17 00:53:44;;;;;;;10.07;6.05;;;19.40;99.90;;;;;;4125289;28;20018;-66
2021/09/17 00:55:45;;;;;;;10.57;6.22;;;19.50;99.90;;;;;;4123938;28;20089;-65
2021/09/17 00:57:46;;;;;;;8.60;5.75;;;19.50;99.90;;;;;;4125792;28;20410;-66
2021/09/17 00:59:47;;;;;;;9.65;5.97;;;19.50;99.90;;;;;;4140808;28;20068;-65
2021/09/17 01:01:48;;;;;;;10.45;6.40;;;19.50;99.90;;;;;;4139768;28;20042;-66
2021/09/17 01:03:49;;;;;;;9.35;5.43;;;19.50;99.90;;;;;;4140592;28;20033;-65
2021/09/17 01:05:51;;;;;;;8.00;5.38;;;19.50;99.90;;;;;;4139933;28;20549;-65
2021/09/17 01:07:52;;;;;;;10.98;7.68;;;19.50;99.90;;;;;;4141069;28;20065;-66
2021/09/17 01:09:55;;;;;;;12.38;7.68;;;19.50;99.90;;;;;;4140169;28;20081;-66
2021/09/17 01:12:03;;;;;;;13.07;8.05;;;19.50;99.90;;;;;;4141008;28;20041;-66
2021/09/17 01:14:05;;;;;;;12.20;6.55;;;19.40;99.90;;;;;;4139773;28;20038;-66
2021/09/17 01:16:06;;;;;;;11.15;6.25;;;19.50;99.90;;;;;;4141243;28;20410;-65
2021/09/17 01:18:08;;;;;;;12.27;7.28;;;19.50;99.90;;;;;;4138179;28;20419;-66
2021/09/17 01:20:15;;;;;;;17.65;6.35;;;19.50;99.90;;;;;;4141137;28;20045;-65
2021/09/17 01:22:16;;;;;;;11.00;6.25;;;19.50;99.90;;;;;;4139751;28;20037;-66
2021/09/17 01:24:17;;;;;;;12.70;6.03;;;19.50;99.90;;;;;;4140870;28;20438;-66
2021/09/17 01:26:19;;;;;;;13.95;6.00;;;19.60;99.90;;;;;;4139606;28;20034;-65
2021/09/17 01:28:29;;;;;;;11.85;5.30;;;19.60;99.90;;;;;;4140894;28;20037;-65
2021/09/17 01:30:30;;;;;;;;;;;19.60;99.90;;;;;;4140633;28;20779;-65
2021/09/17 01:32:31;;;;;;;12.20;6.70;;;19.60;99.90;;;;;;4140519;28;19909;-66
2021/09/17 01:34:32;;;;;;;10.60;6.75;;;19.50;99.90;;;;;;4139621;28;20061;-65
2021/09/17 01:36:34;;;;;;;12.80;8.10;;;19.50;99.90;;;;;;4139085;28;20182;-65
2021/09/17 01:38:37;;;;;;;10.77;7.35;;;19.50;99.90;;;;;;4139496;28;20092;-65
2021/09/17 01:40:38;;;;;;;12.32;6.60;;;19.40;99.90;;;;;;4139669;28;20037;-65
2021/09/17 01:42:40;;;;;;;14.48;7.15;;;19.40;99.90;;;;;;4140668;28;20026;-64
2021/09/17 01:44:41;;;;;;;16.10;9.13;;;19.40;99.90;;;;;;4139101;28;20038;-65
2021/09/17 01:46:42;;;;;;;21.55;10.70;;;19.40;99.90;;;;;;4138843;28;20096;-65
2021/09/17 01:48:43;;;;;;;17.70;10.00;;;19.30;99.90;;;;;;4139394;28;20081;-65
2021/09/17 01:50:44;;;;;;;12.77;8.20;;;19.30;99.90;;;;;;4140103;28;20042;-65
2021/09/17 01:52:45;;;;;;;16.00;8.88;;;19.10;99.90;;;;;;4139231;28;20096;-65
2021/09/17 01:54:47;;;;;;;14.05;8.65;;;19.10;99.90;;;;;;4140617;28;20045;-65
2021/09/17 01:56:48;;;;;;;16.95;7.93;;;19.10;99.90;;;;;;4138968;28;20034;-65
2021/09/17 01:58:50;;;;;;;12.98;6.88;;;19.20;99.90;;;;;;4140494;28;20041;-65
2021/09/17 02:00:51;;;;;;;9.10;5.95;;;19.10;99.90;;;;;;4138953;28;20045;-65
2021/09/17 02:02:52;;;;;;;10.13;5.70;;;19.10;99.90;;;;;;4140846;28;20033;-65
2021/09/17 02:04:53;;;;;;;9.50;6.68;;;19.20;99.90;;;;;;4137652;28;20038;-65
2021/09/17 02:06:54;;;;;;;14.07;6.45;;;19.20;99.90;;;;;;4139709;28;20053;-66
2021/09/17 02:08:56;;;;;;;11.13;6.53;;;19.20;99.90;;;;;;4139724;28;20817;-65
2021/09/17 02:10:58;;;;;;;10.18;6.50;;;19.20;99.90;;;;;;4138396;28;20033;-66
2021/09/17 02:12:59;;;;;;;13.43;7.18;;;19.20;99.90;;;;;;4140308;28;20115;-64
2021/09/17 02:15:00;;;;;;;13.10;7.75;;;19.20;99.90;;;;;;4139335;28;20054;-65
2021/09/17 02:17:01;;;;;;;15.32;7.97;;;19.10;99.90;;;;;;4140177;28;20034;-66
2021/09/17 02:19:02;;;;;;;13.25;8.18;;;19.10;99.90;;;;;;4139271;28;20545;-66
2021/09/17 02:21:04;;;;;;;10.98;7.88;;;19.10;99.90;;;;;;4140182;28;20550;-67
2021/09/17 02:23:05;;;;;;;17.73;8.18;;;19.10;99.90;;;;;;4138812;28;20092;-65
2021/09/17 02:25:06;;;;;;;11.10;6.85;;;19.10;99.90;;;;;;4140293;28;20440;-65
2021/09/17 02:27:07;;;;;;;8.98;6.43;;;19.10;99.90;;;;;;4137547;28;20068;-65
2021/09/17 02:29:09;;;;;;;11.23;6.95;;;19.10;99.90;;;;;;4140326;28;20108;-66
2021/09/17 02:31:10;;;;;;;12.25;6.97;;;19.10;99.90;;;;;;4138926;28;20042;-66
2021/09/17 02:33:11;;;;;;;11.77;6.80;;;19.10;99.90;;;;;;4139794;28;20431;-65
2021/09/17 02:35:13;;;;;;;11.00;6.53;;;19.10;99.90;;;;;;4138998;28;20096;-66
2021/09/17 02:37:14;;;;;;;15.45;7.43;;;19.10;99.90;;;;;;4139611;28;20092;-66
2021/09/17 02:39:15;;;;;;;15.10;9.35;;;19.00;99.90;;;;;;4139602;28;20026;-65
2021/09/17 02:41:17;;;;;;;15.88;8.77;;;18.90;99.90;;;;;;4139179;28;20968;-65
2021/09/17 02:43:18;;;;;;;18.67;8.48;;;18.70;99.90;;;;;;4139884;28;20790;-66
2021/09/17 02:45:19;;;;;;;13.77;8.77;;;18.60;99.90;;;;;;4138822;28;20474;-65
2021/09/17 02:47:22;;;;;;;16.85;9.75;;;18.50;99.90;;;;;;4140211;28;20537;-67
2021/09/17 02:49:23;;;;;;;19.05;8.85;;;18.40;99.90;;;;;;4138649;28;20038;-65
2021/09/17 02:51:24;;;;;;;12.73;8.45;;;18.30;99.90;;;;;;4140100;28;20046;-65
2021/09/17 02:53:25;;;;;;;18.65;8.85;;;18.50;99.90;;;;;;4138711;28;20092;-65
2021/09/17 02:55:26;;;;;;;14.18;7.90;;;18.50;99.90;;;;;;4140215;28;20038;-65
2021/09/17 02:57:27;;;;;;;13.52;8.73;;;18.50;99.90;;;;;;4138298;28;20096;-64
2021/09/17 02:59:28;;;;;;;15.63;7.40;;;18.50;99.90;;;;;;4139466;28;20823;-66
2021/09/17 03:01:31;;;;;;;13.52;7.90;;;18.30;99.90;;;;;;4138717;28;20860;-64
2021/09/17 03:03:32;;;;;;;14.45;8.93;;;18.30;99.90;;;;;;4140204;28;20088;-67
2021/09/17 03:05:33;;;;;;;11.50;8.48;;;18.30;99.90;;;;;;4139745;28;20068;-65
2021/09/17 03:07:34;;;;;;;16.95;8.88;;;18.30;99.90;;;;;;4143145;28;20034;-66
2021/09/17 03:09:35;;;;;;;12.48;8.93;;;18.20;99.90;;;;;;4141811;28;20068;-66
2021/09/17 03:11:36;;;;;;;17.20;9.35;;;18.30;99.90;;;;;;4142181;28;20101;-67
2021/09/17 03:13:37;;;;;;;20.23;8.60;;;18.20;99.90;;;;;;4142948;28;20034;-66
2021/09/17 03:15:39;;;;;;;12.63;9.02;;;18.20;99.90;;;;;;4141810;28;20161;-66
2021/09/17 03:17:40;;;;;;;15.27;9.93;;;18.20;99.90;;;;;;4142315;28;20034;-66
2021/09/17 03:19:41;;;;;;;12.00;8.52;;;18.20;99.90;;;;;;4142090;28;20030;-65
2021/09/17 03:21:42;;;;;;;15.40;9.77;;;18.20;99.90;;;;;;4142421;28;20045;-66
2021/09/17 03:23:43;;;;;;;14.93;9.70;;;18.10;99.90;;;;;;4141403;28;20022;-65
2021/09/17 03:25:45;;;;;;;15.90;10.40;;;18.00;99.90;;;;;;4143134;28;21004;-67
2021/09/17 03:27:46;;;;;;;17.92;10.57;;;18.00;99.90;;;;;;4140935;28;20084;-66
2021/09/17 03:29:47;;;;;;;17.88;10.95;;;18.00;99.90;;;;;;4142812;28;20034;-66
2021/09/17 03:31:48;;;;;;;20.63;10.45;;;17.90;99.90;;;;;;4141304;28;20092;-65
2021/09/17 03:33:51;;;;;;;17.92;10.25;;;17.90;99.90;;;;;;4142693;28;20072;-66
2021/09/17 03:35:52;;;;;;;18.17;9.98;;;17.90;99.90;;;;;;4141150;28;20069;-67
2021/09/17 03:37:53;;;;;;;19.40;9.18;;;17.90;99.90;;;;;;4141551;28;20096;-66
2021/09/17 03:39:55;;;;;;;20.13;9.68;;;17.90;99.90;;;;;;4141381;28;20030;-65
2021/09/17 03:41:56;;;;;;;13.05;9.77;;;17.90;99.90;;;;;;4141426;28;20076;-66
2021/09/17 03:43:57;;;;;;;18.80;9.95;;;17.90;99.90;;;;;;4141843;28;20080;-66
2021/09/17 03:45:58;;;;;;;15.48;10.18;;;17.90;99.90;;;;;;4140554;28;20482;-65
2021/09/17 03:48:04;;;;;;;18.20;10.82;;;17.80;99.90;;;;;;4141812;28;20558;-66
2021/09/17 03:50:06;;;;;;;12.88;9.27;;;17.80;99.90;;;;;;4141295;28;20080;-68
2021/09/17 03:52:07;;;;;;;12.30;9.43;;;17.80;99.90;;;;;;4142475;28;20038;-65
2021/09/17 03:54:08;;;;;;;20.45;10.63;;;17.80;99.90;;;;;;4140700;28;20038;-65
2021/09/17 03:56:09;;;;;;;16.55;10.88;;;17.80;99.90;;;;;;4142288;28;20876;-65
2021/09/17 03:58:12;;;;;;;19.92;9.70;;;17.80;99.90;;;;;;4140605;28;20653;-65
2021/09/17 04:00:13;;;;;;;18.90;11.85;;;17.80;99.90;;;;;;4141125;28;20026;-66
2021/09/17 04:02:14;;;;;;;16.95;10.45;;;17.80;99.90;;;;;;4139918;28;20092;-65
2021/09/17 04:04:15;;;;;;;24.58;11.27;;;17.70;99.90;;;;;;4142073;28;20045;-65
2021/09/17 04:06:16;;;;;;;15.48;10.00;;;17.70;99.90;;;;;;4139193;28;20045;-65
2021/09/17 04:08:18;;;;;;;15.88;11.05;;;17.70;99.90;;;;;;4137048;28;20029;-66
2021/09/17 04:10:21;;;;;;;20.73;10.35;;;17.70;99.90;;;;;;4128888;28;20391;-66
2021/09/17 04:12:22;;;;;;;19.30;10.80;;;17.60;99.90;;;;;;4128576;28;20026;-65
2021/09/17 04:14:23;;;;;;;13.68;9.63;;;17.60;99.90;;;;;;4140893;28;20151;-65
2021/09/17 04:16:24;;;;;;;16.35;10.55;;;17.60;99.90;;;;;;4140188;28;20088;-65
2021/09/17 04:18:25;;;;;;;14.45;10.75;;;17.60;99.90;;;;;;4140565;28;20033;-67
2021/09/17 04:20:26;;;;;;;21.98;11.98;;;17.60;99.90;;;;;;4122549;28;20042;-66
2021/09/17 04:22:27;;;;;;;20.67;11.80;;;17.60;99.90;;;;;;4125156;28;20085;-65
2021/09/17 04:24:28;;;;;;;15.35;11.23;;;17.60;99.90;;;;;;4123778;28;20026;-65
2021/09/17 04:26:29;;;;;;;17.17;10.95;;;17.60;99.90;;;;;;4124809;28;20054;-66
2021/09/17 04:28:31;;;;;;;15.63;9.95;;;17.60;99.90;;;;;;4123687;28;20089;-65
2021/09/17 04:30:33;;;;;;;16.05;10.25;;;17.60;99.90;;;;;;4125166;28;20030;-65
2021/09/17 04:32:43;;;;;;;16.40;10.93;;;17.60;99.90;;;;;;4121229;28;20042;-64
2021/09/17 04:34:45;;;;;;;16.85;9.57;;;17.60;99.90;;;;;;4132348;28;20049;-66
2021/09/17 04:36:46;;;;;;;17.52;10.57;;;17.70;99.90;;;;;;4138324;28;20103;-64
2021/09/17 04:38:47;;;;;;;19.55;10.50;;;17.70;99.90;;;;;;4139668;28;20814;-64
2021/09/17 04:40:48;;;;;;;16.17;10.73;;;17.70;99.90;;;;;;4138738;28;20094;-64
2021/09/17 04:42:50;;;;;;;17.08;11.20;;;17.70;99.90;;;;;;4138765;28;20050;-64
2021/09/17 04:44:51;;;;;;;23.88;11.63;;;17.70;99.90;;;;;;4138640;28;20018;-64
2021/09/17 04:46:52;;;;;;;19.83;10.95;;;17.80;99.90;;;;;;4139878;28;20030;-65
2021/09/17 04:48:53;;;;;;;18.15;10.80;;;17.80;99.90;;;;;;4139983;28;20434;-63
2021/09/17 04:50:54;;;;;;;16.40;11.32;;;17.80;99.90;;;;;;4139514;28;20120;-63
2021/09/17 04:52:55;;;;;;;14.15;10.77;;;17.80;99.90;;;;;;4141362;28;20034;-65
2021/09/17 04:54:59;;;;;;;18.65;11.02;;;17.80;99.90;;;;;;4139309;28;20418;-65
2021/09/17 04:57:01;;;;;;;17.38;10.80;;;17.80;99.90;;;;;;4141049;28;20085;-65
2021/09/17 04:59:02;;;;;;;15.02;10.52;;;17.80;99.90;;;;;;4139544;28;20060;-64
2021/09/17 05:01:03;;;;;;;17.08;11.05;;;17.90;99.90;;;;;;4140541;28;20426;-65
2021/09/17 05:03:04;;;;;;;17.08;10.23;;;17.90;99.90;;;;;;4138492;28;20045;-65
2021/09/17 05:05:05;;;;;;;16.30;10.88;;;17.90;99.90;;;;;;4140659;28;20386;-65
2021/09/17 05:07:07;;;;;;;16.75;10.82;;;18.00;99.90;;;;;;4139375;28;20021;-64
2021/09/17 05:09:08;;;;;;;14.65;10.93;;;18.00;99.90;;;;;;4141292;28;20383;-65
2021/09/17 05:11:09;;;;;;;17.58;11.20;;;18.00;99.90;;;;;;4139294;28;20100;-65
2021/09/17 05:13:10;;;;;;;19.58;11.73;;;18.10;99.90;;;;;;4139980;28;20042;-65
2021/09/17 05:15:12;;;;;;;17.17;9.93;;;18.10;99.90;;;;;;4139382;28;20046;-65
2021/09/17 05:17:13;;;;;;;17.05;10.43;;;18.00;99.90;;;;;;4140203;28;20034;-67
2021/09/17 05:19:14;;;;;;;14.73;10.75;;;18.00;99.90;;;;;;4140561;28;20049;-65
2021/09/17 05:21:15;;;;;;;17.35;11.05;;;18.00;99.90;;;;;;4139753;28;20084;-66
2021/09/17 05:23:18;;;;;;;22.25;12.02;;;18.10;99.90;;;;;;4140019;28;20490;-66
2021/09/17 05:25:19;;;;;;;19.33;10.95;;;18.10;99.90;;;;;;4139226;28;20068;-65
2021/09/17 05:27:21;;;;;;;18.58;10.68;;;18.20;99.90;;;;;;4140096;28;20033;-65
2021/09/17 05:29:22;;;;;;;17.30;11.25;;;18.20;99.90;;;;;;4138953;28;20038;-65
2021/09/17 05:31:23;;;;;;;20.85;11.05;;;18.30;99.90;;;;;;4139687;28;20096;-66
2021/09/17 05:33:24;;;;;;;20.02;11.05;;;18.30;99.90;;;;;;4134291;28;20092;-65
2021/09/17 05:35:25;;;;;;;19.35;10.55;;;18.30;99.90;;;;;;4138746;28;20449;-65
2021/09/17 05:37:26;;;;;;;17.52;10.63;;;18.30;99.90;;;;;;4138416;28;20076;-64
2021/09/17 05:39:27;;;;;;;24.45;11.85;;;18.30;99.90;;;;;;4138795;28;20026;-63
2021/09/17 05:41:29;;;;;;;17.50;11.25;;;18.30;99.90;;;;;;4136805;28;20034;-67
2021/09/17 05:43:30;;;;;;;15.70;10.05;;;18.30;99.90;;;;;;4138992;28;20033;-66
2021/09/17 05:45:31;;;;;;;19.55;10.85;;;18.30;99.90;;;;;;4139311;28;20030;-65
2021/09/17 05:47:32;;;;;;;15.93;10.20;;;18.30;99.90;;;;;;4139535;28;20046;-66
2021/09/17 05:49:33;;;;;;;19.52;11.25;;;18.30;99.90;;;;;;4140414;28;20030;-66
2021/09/17 05:51:35;;;;;;;19.45;10.55;;;18.30;99.90;;;;;;4137139;28;20033;-64
2021/09/17 05:53:36;;;;;;;22.35;11.25;;;18.30;99.90;;;;;;4125717;28;20080;-65
2021/09/17 05:55:37;;;;;;;15.10;11.30;;;18.30;99.90;;;;;;4137992;28;20061;-65
2021/09/17 05:57:38;;;;;;;19.15;10.73;;;18.30;99.90;;;;;;4140239;28;20406;-64
2021/09/17 05:59:39;;;;;;;20.63;10.82;;;18.40;99.90;;;;;;4138985;28;20042;-70
2021/09/17 06:01:40;;;;;;;19.05;11.05;;;18.40;99.90;;;;;;4140097;28;20030;-68
2021/09/17 06:03:41;;;;;;;16.45;10.93;;;18.40;99.90;;;;;;4139113;28;20034;-66
2021/09/17 06:05:42;;;;;;;15.88;10.48;;;18.40;99.90;;;;;;4138607;28;20116;-65
2021/09/17 06:07:45;;;;;;;21.90;11.82;;;18.40;99.90;;;;;;4138837;28;20034;-63
2021/09/17 06:09:46;;;;;;;19.75;12.10;;;18.40;99.90;;;;;;4140095;28;20076;-67
2021/09/17 06:11:47;;;;;;;19.98;11.30;;;18.40;99.90;;;;;;4139356;28;20046;-67
2021/09/17 06:13:49;;;;;;;17.00;11.80;;;18.40;99.90;;;;;;4138973;28;20034;-64
2021/09/17 06:15:50;;;;;;;17.48;10.60;;;18.40;99.90;;;;;;4139356;28;20038;-68
2021/09/17 06:17:51;;;;;;;17.30;10.73;;;18.50;99.90;;;;;;4138948;28;20034;-64
2021/09/17 06:19:52;;;;;;;19.67;12.23;;;18.60;99.90;;;;;;4138147;28;20030;-67
2021/09/17 06:21:53;;;;;;;18.88;11.60;;;18.60;99.90;;;;;;4138109;28;20485;-67
2021/09/17 06:23:54;;;;;;;19.00;10.52;;;18.70;99.90;;;;;;4131769;28;20038;-67
2021/09/17 06:25:56;;;;;;;16.77;10.52;;;18.80;99.90;;;;;;4138052;28;20088;-69
2021/09/17 06:27:57;;;;;;;18.55;11.57;;;18.80;99.90;;;;;;4139642;28;20036;-67
2021/09/17 06:29:59;;;;;;;15.18;11.48;;;18.90;99.90;;;;;;4138493;28;20038;-65
2021/09/17 06:32:00;;;;;;;13.95;11.05;;;18.90;99.90;;;;;;4139445;28;20881;-67
2021/09/17 06:34:01;;;;;;;24.80;12.05;;;18.90;99.90;;;;;;4134518;28;20045;-64
2021/09/17 06:36:03;;;;;;;19.00;11.90;;;18.90;99.90;;;;;;4139725;28;20049;-64
2021/09/17 06:38:04;;;;;;;18.50;11.40;;;18.90;99.90;;;;;;4138200;28;20457;-65
2021/09/17 06:40:05;;;;;;;19.88;11.10;;;18.90;99.90;;;;;;4139662;28;20100;-66
2021/09/17 06:42:07;;;;;;;20.33;11.95;;;19.00;99.90;;;;;;4140604;28;20046;-64
2021/09/17 06:44:08;;;;;;;21.05;12.63;;;19.00;99.90;;;;;;4143738;28;20470;-64
2021/09/17 06:46:10;;;;;;;18.23;12.38;;;19.00;99.90;;;;;;4142046;28;20061;-63
2021/09/17 06:48:11;;;;;;;16.20;11.75;;;19.00;99.90;;;;;;4139454;28;20018;-65
2021/09/17 06:50:12;;;;;;;21.60;12.30;;;18.80;99.90;;;;;;4142955;28;20025;-64
2021/09/17 06:52:13;;;;;;;26.05;14.98;;;18.70;99.90;;;;;;4142328;28;20068;-66
2021/09/17 06:54:15;;;;;;;28.45;15.10;;;18.60;99.90;;;;;;4141917;28;20029;-67
2021/09/17 06:56:16;;;;;;;24.83;14.38;;;18.60;99.90;;;;;;4141912;28;20098;-65
2021/09/17 06:58:17;;;;;;;23.15;15.27;;;18.60;99.90;;;;;;4143594;28;20030;-64
2021/09/17 07:00:20;;;;;;;39.92;24.55;;;18.50;99.90;;;;;;4141568;28;20371;-65
2021/09/17 07:02:23;;;;;;;31.88;18.88;;;18.50;99.90;;;;;;4142677;28;20077;-64
2021/09/17 07:04:24;;;;;;;24.17;14.75;;;18.50;99.90;;;;;;4141134;28;20064;-63
2021/09/17 07:06:26;;;;;;;25.98;14.65;;;18.50;99.90;;;;;;4142371;28;20104;-63
2021/09/17 07:08:27;;;;;;;21.35;15.63;;;18.50;99.90;;;;;;4140033;28;20034;-64
2021/09/17 07:10:29;;;;;;;25.73;14.75;;;18.40;99.90;;;;;;4141840;28;20100;-63
2021/09/17 07:12:30;;;;;;;23.55;13.50;;;18.30;99.90;;;;;;4140556;28;20033;-63
2021/09/17 07:14:31;;;;;;;24.13;14.48;;;18.20;99.90;;;;;;4141521;28;20041;-64
2021/09/17 07:16:32;;;;;;;23.63;14.40;;;18.20;99.90;;;;;;4136779;28;20655;-64
2021/09/17 07:18:33;;;;;;;21.40;13.23;;;18.20;99.90;;;;;;4140377;28;20046;-63
2021/09/17 07:20:36;;;;;;;24.02;14.20;;;18.20;99.90;;;;;;4139628;28;20135;-64
2021/09/17 07:22:37;;;;;;;19.10;14.73;;;18.20;99.90;;;;;;4140096;28;20474;-64
2021/09/17 07:24:38;;;;;;;18.60;13.38;;;18.20;99.90;;;;;;4140097;28;20528;-64
2021/09/17 07:26:39;;;;;;;25.42;14.32;;;18.20;99.90;;;;;;4135880;28;20038;-66
2021/09/17 07:28:40;;;;;;;18.90;13.27;;;18.20;99.90;;;;;;4141800;28;20034;-65
2021/09/17 07:30:41;;;;;;;22.88;15.65;;;18.30;99.90;;;;;;4139199;28;20433;-65
2021/09/17 07:32:43;;;;;;;21.88;14.32;;;18.40;99.90;;;;;;4141651;28;20068;-63
2021/09/17 07:34:44;;;;;;;21.38;14.15;;;18.40;99.90;;;;;;4125290;28;20108;-66
2021/09/17 07:36:45;;;;;;;24.23;15.48;;;18.40;99.90;;;;;;4125320;28;20058;-67
2021/09/17 07:38:46;;;;;;;21.10;14.68;;;18.40;99.90;;;;;;4124214;28;20022;-64
2021/09/17 07:40:47;;;;;;;24.73;15.27;;;18.40;99.90;;;;;;4125468;28;20038;-65
2021/09/17 07:42:49;;;;;;;18.17;13.73;;;18.50;99.90;;;;;;4123954;28;20022;-66
2021/09/17 07:44:50;;;;;;;19.13;13.43;;;18.70;99.90;;;;;;4124947;28;20081;-65
2021/09/17 07:46:51;;;;;;;23.42;14.82;;;18.80;99.90;;;;;;4124173;28;20026;-65
2021/09/17 07:48:53;;;;;;;26.35;15.90;;;18.80;99.90;;;;;;4125148;28;20105;-65
2021/09/17 07:50:54;;;;;;;23.73;15.75;;;18.80;99.90;;;;;;4123755;28;20039;-67
2021/09/17 07:52:56;;;;;;;24.77;15.48;;;18.80;99.90;;;;;;4124329;28;20027;-65
2021/09/17 07:54:57;;;;;;;21.05;15.48;;;18.90;99.90;;;;;;4124758;28;20027;-66
2021/09/17 07:56:58;;;;;;;18.75;13.32;;;18.90;99.90;;;;;;4124135;28;20549;-65
2021/09/17 07:59:00;;;;;;;20.63;13.52;;;18.90;99.90;;;;;;4124869;28;20065;-66
2021/09/17 08:01:01;;;;;;;21.15;14.85;;;18.70;99.90;;;;;;4123853;28;20050;-66
2021/09/17 08:03:04;;;;;;;22.13;14.02;;;18.70;99.90;;;;;;4125202;28;20074;-66
2021/09/17 08:05:06;;;;;;;20.80;13.33;;;18.70;99.90;;;;;;4081735;28;1166076;-66
2021/09/17 08:07:08;;;;;;;24.23;15.00;;;18.80;99.90;;;;;;4129797;28;20072;-65
2021/09/17 08:09:09;;;;;;;24.45;15.07;;;18.80;99.90;;;;;;4139660;28;20030;-65
2021/09/17 08:11:10;;;;;;;21.92;13.98;;;18.90;99.90;;;;;;4141135;28;20025;-66
2021/09/17 08:13:11;;;;;;;22.05;14.27;;;19.00;99.90;;;;;;4141168;28;20038;-66
2021/09/17 08:15:13;;;;;;;22.95;14.38;;;18.90;99.90;;;;;;4142377;28;20030;-66
2021/09/17 08:17:14;;;;;;;26.92;16.73;;;19.00;99.90;;;;;;4141044;28;20084;-65
2021/09/17 08:19:16;;;;;;;20.83;14.07;;;19.10;99.90;;;;;;4131574;28;20121;-68
2021/09/17 08:21:17;;;;;;;23.63;15.77;;;19.20;99.90;;;;;;4126323;28;20101;-66
2021/09/17 08:23:19;;;;;;;30.52;16.27;;;19.20;99.90;;;;;;4139739;28;20018;-69
2021/09/17 08:25:22;;;;;;;26.42;17.55;;;19.20;99.90;;;;;;4140836;28;20022;-65
2021/09/17 08:27:23;;;;;;;26.65;15.95;;;19.20;99.90;;;;;;4140615;28;20030;-65
2021/09/17 08:29:28;;;;;;;24.35;14.75;;;19.20;99.90;;;;;;4141572;28;20042;-64
2021/09/17 08:31:29;;;;;;;21.15;15.35;;;19.30;99.90;;;;;;4139615;28;20025;-65
2021/09/17 08:33:31;;;;;;;26.25;15.88;;;19.20;99.90;;;;;;4141239;28;20115;-66
2021/09/17 08:35:32;;;;;;;29.67;15.40;;;19.30;99.90;;;;;;4139841;28;20751;-65
2021/09/17 08:37:33;;;;;;;22.02;14.07;;;19.30;99.90;;;;;;4141732;28;20054;-65
2021/09/17 08:39:37;;;;;;;23.38;14.27;;;19.20;99.90;;;;;;4139034;28;20038;-65
2021/09/17 08:41:38;;;;;;;19.88;13.35;;;19.30;99.90;;;;;;4140982;28;20030;-65
2021/09/17 08:43:40;;;;;;;19.98;14.00;;;19.30;99.90;;;;;;4139236;28;20108;-65
2021/09/17 08:45:41;;;;;;;23.42;14.05;;;19.30;99.90;;;;;;4139789;28;20037;-65
2021/09/17 08:47:48;;;;;;;27.10;13.65;;;19.30;99.90;;;;;;4139707;28;20100;-65
2021/09/17 08:49:50;;;;;;;18.95;13.38;;;19.20;99.90;;;;;;4141664;28;20053;-66
2021/09/17 08:51:54;;;;;;;19.30;13.15;;;19.30;99.90;;;;;;4140143;28;20103;-65
2021/09/17 08:53:55;;;;;;;22.40;13.65;;;19.40;99.90;;;;;;4138375;28;20033;-65
2021/09/17 08:55:56;;;;;;;21.67;12.65;;;19.50;99.90;;;;;;4139527;28;20033;-66
2021/09/17 08:57:58;;;;;;;21.15;13.48;;;19.70;99.90;;;;;;4138353;28;20037;-66
2021/09/17 08:59:59;;;;;;;20.33;11.93;;;19.80;99.90;;;;;;4139782;28;20030;-66
2021/09/17 09:02:36;;;;;;;28.05;11.48;;;19.90;99.90;;;;;;4139996;28;20029;-65
2021/09/17 09:04:41;;;;;;;20.67;11.43;;;19.90;99.90;;;;;;4089144;29;20153;-65
2021/09/17 09:06:46;;;;;;;24.15;11.27;;;19.80;99.90;;;;;;4118928;28;20533;-65
2021/09/17 09:08:49;;;;;;;18.70;10.57;;;19.80;99.90;;;;;;4139847;28;20042;-64
2021/09/17 09:10:50;;;;;;;22.27;10.95;;;19.90;99.90;;;;;;4139923;28;20030;-64
2021/09/17 09:12:57;;;;;;;18.98;9.68;;;19.90;99.90;;;;;;4138543;28;20038;-64
2021/09/17 09:15:12;;;;;;;24.30;11.20;;;20.00;99.90;;;;;;4121990;28;20042;-65
2021/09/17 09:17:13;;;;;;;23.58;10.48;;;20.00;99.90;;;;;;4123725;28;20116;-64
2021/09/17 09:19:27;;;;;;;24.52;11.50;;;20.10;99.90;;;;;;4123400;28;20073;-64
2021/09/17 09:21:30;;;;;;;23.00;9.48;;;20.30;99.90;;;;;;4123889;28;20042;-65
2021/09/17 09:23:31;;;;;;;19.45;8.73;;;20.40;99.90;;;;;;4123481;28;20356;-64
2021/09/17 09:25:52;;;;;;;22.10;8.90;;;20.40;99.90;;;;;;4124297;28;20144;-65
2021/09/17 09:27:54;;;;;;;26.15;9.15;;;20.40;99.90;;;;;;4123151;28;20065;-66
2021/09/17 09:29:55;;;;;;;23.27;8.45;;;20.40;99.90;;;;;;4130640;28;20034;-65
2021/09/17 09:31:57;;;;;;;22.15;8.85;;;20.40;99.90;;;;;;4139843;28;20038;-65
2021/09/17 09:33:58;;;;;;;19.08;8.88;;;20.40;99.90;;;;;;4140796;28;20096;-64
2021/09/17 09:36:21;;;;;;;19.15;8.02;;;20.50;99.90;;;;;;4128385;28;20039;-63
2021/09/17 09:38:55;;;;;;;23.67;8.57;;;20.60;99.90;;;;;;4123169;28;20097;-66
2021/09/17 09:40:59;;;;;;;21.83;9.00;;;20.70;99.90;;;;;;4111685;28;20486;-65
2021/09/17 09:43:01;;;;;;;19.35;7.90;;;20.80;99.90;;;;;;4123311;28;20430;-64
2021/09/17 09:45:21;;;;;;;18.45;7.78;;;20.90;99.90;;;;;;4123023;28;20022;-65
2021/09/17 09:47:33;;;;;;;22.23;8.57;;;21.00;99.90;;;;;;4123561;28;20034;-64
2021/09/17 09:49:37;;;;;;;20.23;7.63;;;21.10;99.90;;;;;;4123354;28;20027;-65
2021/09/17 09:52:06;;;;;;;17.67;7.85;;;21.10;99.90;;;;;;4123649;28;20080;-64
2021/09/17 09:54:10;;;;;;;18.45;7.85;;;21.10;99.90;;;;;;4123100;28;20483;-62
2021/09/17 09:56:12;;;;;;;18.90;8.70;;;21.20;99.90;;;;;;4123272;28;20057;-64
2021/09/17 09:58:13;;;;;;;18.05;8.38;;;21.20;99.90;;;;;;4123256;28;20038;-65
2021/09/17 10:00:15;;;;;;;26.67;9.15;;;21.30;99.90;;;;;;4123649;28;20038;-64
2021/09/17 10:02:17;;;;;;;21.65;8.02;;;21.30;99.90;;;;;;4122450;28;20070;-65
2021/09/17 10:04:21;;;;;;;14.43;6.22;;;21.40;99.90;;;;;;4123888;28;20046;-64
2021/09/17 10:06:27;;;;;;;16.08;5.35;;;21.50;99.90;;;;;;4129074;28;20054;-66
2021/09/17 10:08:28;;;;;;;13.90;6.03;;;21.60;99.90;;;;;;4139380;28;20096;-65
2021/09/17 10:10:29;;;;;;;15.48;5.50;;;21.70;99.90;;;;;;4138616;28;20096;-64
2021/09/17 10:12:30;;;;;;;14.25;4.55;;;21.70;99.90;;;;;;4140148;28;20030;-64
2021/09/17 10:14:33;;;;;;;10.73;3.92;;;21.70;99.90;;;;;;4138350;28;20099;-67
2021/09/17 10:16:35;;;;;;;14.68;4.45;;;21.80;99.90;;;;;;4139043;28;20103;-64
2021/09/17 10:18:37;;;;;;;15.85;5.03;;;21.90;99.90;;;;;;4138951;28;20068;-65
2021/09/17 10:20:39;;;;;;;17.95;4.75;;;22.00;99.90;;;;;;4139791;28;20046;-65
2021/09/17 10:22:43;;;;;;;13.50;4.88;;;22.00;99.90;;;;;;4138022;28;20042;-64
2021/09/17 10:24:45;;;;;;;13.95;4.30;;;22.00;99.90;;;;;;4139229;28;20041;-64